Imnaha, Oregon
Current Conditions -  °F | °C
As of 1:35 AM on Thursday 27 Nov 2014 (Local Time) from KGIC Reporting Station
Broken Clouds Broken Clouds  
Wind Chill: 48°   Ceiling: 12000
Heat Index: 48°   Visibility: 10mi
Dew Point: 35°   Wind: 0mph
Humidity: 61%   Direction: NA
Pressure: 30.07"   Gusts: NA
Location:  45.56°N, 116.83°W
Report Text: KGIC 270935Z AUTO 00000KT 10SM BKN120 09/02 A3007 RMK AO1 T00880017
Loading
Personal Weather Stations






























Interactive Weather Map New forecast layout! Learn more

10-Day Weather Forecast

Advertisements
Track Severe Weather on mobile